createdAt,value
2023-02-17T00:01:33.592Z,6.65
2023-02-17T00:04:01.645Z,6.60
2023-02-17T00:06:30.759Z,6.56
2023-02-17T00:08:59.526Z,6.52
2023-02-17T00:11:28.487Z,6.50
2023-02-17T00:13:56.519Z,6.49
2023-02-17T00:16:26.955Z,6.49
2023-02-17T00:19:02.023Z,6.49
2023-02-17T00:21:32.217Z,6.46
2023-02-17T00:24:00.466Z,6.47
2023-02-17T00:26:27.882Z,6.47
2023-02-17T00:28:57.610Z,6.47
2023-02-17T00:31:24.818Z,6.46
2023-02-17T00:33:56.262Z,6.46
2023-02-17T00:36:25.467Z,6.46
2023-02-17T00:38:56.081Z,6.45
2023-02-17T00:41:24.922Z,6.43
2023-02-17T00:43:51.997Z,6.39
2023-02-17T00:46:19.526Z,6.37
2023-02-17T00:48:47.955Z,6.37
2023-02-17T00:51:16.502Z,6.34
2023-02-17T00:53:43.953Z,6.32
2023-02-17T00:56:12.835Z,6.30
2023-02-17T00:58:41.667Z,6.30
2023-02-17T01:01:10.897Z,6.30
2023-02-17T01:03:42.419Z,6.30
2023-02-17T01:06:19.126Z,6.28
2023-02-17T01:08:46.182Z,6.26
2023-02-17T01:11:28.453Z,6.25
2023-02-17T01:14:00.476Z,6.22
2023-02-17T01:16:35.404Z,6.20
2023-02-17T01:19:06.057Z,6.19
2023-02-17T01:21:35.198Z,6.16
2023-02-17T01:24:06.151Z,6.13
2023-02-17T01:26:37.567Z,6.10
2023-02-17T01:29:06.236Z,6.08
2023-02-17T01:31:34.001Z,6.06
2023-02-17T01:34:04.055Z,6.06
2023-02-17T01:36:31.985Z,6.06
2023-02-17T01:38:59.372Z,6.03
2023-02-17T01:41:28.291Z,6.03
2023-02-17T01:44:23.975Z,6.02
2023-02-17T01:46:54.083Z,5.97
2023-02-17T01:49:39.964Z,5.93
2023-02-17T01:52:33.071Z,5.88
2023-02-17T01:55:06.714Z,5.86
2023-02-17T01:57:38.171Z,5.84
2023-02-17T02:00:08.805Z,5.82
2023-02-17T02:02:46.642Z,5.81
2023-02-17T02:05:16.158Z,5.79
2023-02-17T02:07:47.674Z,5.78
2023-02-17T02:10:18.066Z,5.77
2023-02-17T02:12:45.681Z,5.75
2023-02-17T02:15:18.058Z,5.72
2023-02-17T02:18:21.342Z,5.68
2023-02-17T02:21:32.425Z,5.65
2023-02-17T02:24:13.765Z,5.60
2023-02-17T02:27:23.685Z,5.57
2023-02-17T02:30:30.265Z,5.54
2023-02-17T02:33:48.969Z,5.50
2023-02-17T02:36:31.582Z,5.47
2023-02-17T02:39:17.817Z,5.44
2023-02-17T02:41:51.479Z,5.42
2023-02-17T02:44:21.074Z,5.42
2023-02-17T02:47:05.040Z,5.41
2023-02-17T02:49:35.901Z,5.41
2023-02-17T02:52:43.993Z,5.39
2023-02-17T02:55:13.816Z,5.39
2023-02-17T02:57:55.317Z,5.37
2023-02-17T03:00:36.361Z,5.35
2023-02-17T03:03:18.673Z,5.35
2023-02-17T03:06:12.144Z,5.31
2023-02-17T03:08:48.811Z,5.31
2023-02-17T03:11:32.568Z,5.29
2023-02-17T03:14:09.786Z,5.27
2023-02-17T03:16:42.044Z,5.25
2023-02-17T03:19:11.098Z,5.23
2023-02-17T03:21:46.640Z,5.24
2023-02-17T03:24:13.912Z,5.23
2023-02-17T03:26:41.460Z,5.21
2023-02-17T03:29:09.186Z,5.16
2023-02-17T03:31:36.927Z,5.15
2023-02-17T03:34:04.608Z,5.13
2023-02-17T03:36:31.677Z,5.12
2023-02-17T03:38:58.784Z,5.11
2023-02-17T03:41:26.032Z,5.10
2023-02-17T03:43:53.321Z,5.08
2023-02-17T03:46:20.816Z,5.06
2023-02-17T03:48:47.984Z,5.04
2023-02-17T03:51:22.339Z,5.03
2023-02-17T03:53:50.256Z,5.02
2023-02-17T03:56:18.617Z,5.00
2023-02-17T03:58:46.054Z,4.99
2023-02-17T04:01:14.645Z,4.96
2023-02-17T04:03:42.269Z,4.91
2023-02-17T04:06:10.605Z,4.90
2023-02-17T04:08:38.968Z,4.89
2023-02-17T04:11:09.180Z,4.86
2023-02-17T04:13:37.015Z,4.86
2023-02-17T04:16:07.088Z,4.84
2023-02-17T04:18:35.645Z,4.84
2023-02-17T04:21:05.053Z,4.84
2023-02-17T04:23:32.279Z,4.83
2023-02-17T04:25:59.379Z,4.80
2023-02-17T04:28:27.201Z,4.76
2023-02-17T04:30:54.395Z,4.75
2023-02-17T04:33:25.353Z,4.73
2023-02-17T04:35:59.444Z,4.71
2023-02-17T04:38:31.950Z,4.70
2023-02-17T04:41:01.041Z,4.67
2023-02-17T04:43:29.246Z,4.68
2023-02-17T04:45:57.173Z,4.64
2023-02-17T04:48:26.026Z,4.62
2023-02-17T04:50:53.418Z,4.61
2023-02-17T04:53:20.870Z,4.56
2023-02-17T04:55:53.177Z,4.54
2023-02-17T04:58:21.952Z,4.53
2023-02-17T05:00:51.106Z,4.54
2023-02-17T05:03:19.140Z,4.52
2023-02-17T05:05:46.299Z,4.50
2023-02-17T05:08:13.415Z,4.50
2023-02-17T05:10:40.609Z,4.49
2023-02-17T05:13:07.816Z,4.47
2023-02-17T05:15:35.262Z,4.47
2023-02-17T05:18:03.569Z,4.45
2023-02-17T05:20:30.732Z,4.44
2023-02-17T05:22:57.774Z,4.43
2023-02-17T05:25:24.921Z,4.44
2023-02-17T05:27:52.396Z,4.39
2023-02-17T05:30:20.253Z,4.37
2023-02-17T05:32:47.404Z,4.35
2023-02-17T05:35:14.543Z,4.34
2023-02-17T05:37:41.686Z,4.33
2023-02-17T05:40:09.427Z,4.33
2023-02-17T05:42:36.578Z,4.31
2023-02-17T05:45:05.086Z,4.27
2023-02-17T05:47:32.143Z,4.26
2023-02-17T05:49:59.129Z,4.25
2023-02-17T05:52:26.237Z,4.18
2023-02-17T05:54:53.415Z,4.17
2023-02-17T05:57:20.459Z,4.13
2023-02-17T05:59:47.573Z,4.10
2023-02-17T06:02:14.723Z,4.10
2023-02-17T06:04:41.874Z,4.10
2023-02-17T06:07:09.021Z,4.10
2023-02-17T06:09:36.156Z,4.11
2023-02-17T06:12:04.026Z,4.14
2023-02-17T06:14:31.163Z,4.14
2023-02-17T06:17:00.864Z,4.15
2023-02-17T06:19:28.396Z,4.14
2023-02-17T06:21:57.155Z,4.13
2023-02-17T06:24:25.158Z,4.12
2023-02-17T06:26:52.341Z,4.11
2023-02-17T06:29:19.824Z,4.08
2023-02-17T06:31:47.037Z,4.06
2023-02-17T06:34:15.455Z,4.05
2023-02-17T06:36:42.580Z,4.07
2023-02-17T06:39:09.620Z,4.06
2023-02-17T06:41:36.704Z,4.07
2023-02-17T06:44:04.257Z,4.07
2023-02-17T06:46:31.596Z,4.06
2023-02-17T06:49:00.211Z,4.06
2023-02-17T06:51:28.700Z,4.05
2023-02-17T06:53:56.495Z,4.06
2023-02-17T06:56:24.512Z,4.09
2023-02-17T06:58:52.331Z,4.10
2023-02-17T07:01:23.932Z,4.10
2023-02-17T07:03:51.153Z,4.11
2023-02-17T07:06:18.868Z,4.12
2023-02-17T07:08:46.156Z,4.11
2023-02-17T07:11:14.681Z,4.12
2023-02-17T07:13:42.656Z,4.11
2023-02-17T07:16:13.068Z,4.10
2023-02-17T07:18:40.638Z,4.15
2023-02-17T07:21:09.220Z,4.15
2023-02-17T07:23:39.009Z,4.23
2023-02-17T07:26:11.013Z,4.22
2023-02-17T07:28:39.523Z,4.21
2023-02-17T07:31:13.727Z,4.20
2023-02-17T07:33:41.323Z,4.21
2023-02-17T07:36:15.128Z,4.27
2023-02-17T07:38:43.462Z,4.31
2023-02-17T07:41:14.712Z,4.36
2023-02-17T07:43:42.144Z,4.39
2023-02-17T07:46:11.069Z,4.43
2023-02-17T07:48:39.047Z,4.48
2023-02-17T07:51:13.261Z,4.51
2023-02-17T07:53:41.073Z,4.55
2023-02-17T07:56:14.695Z,4.61
2023-02-17T07:58:43.783Z,4.65
2023-02-17T08:01:18.182Z,4.68
2023-02-17T08:03:47.454Z,4.74
2023-02-17T08:06:23.992Z,4.79
2023-02-17T08:09:11.886Z,4.82
2023-02-17T08:11:59.804Z,4.88
2023-02-17T08:14:29.912Z,4.93
2023-02-17T08:16:57.959Z,4.98
2023-02-17T08:19:27.222Z,5.04
2023-02-17T08:21:57.021Z,5.10
2023-02-17T08:24:24.769Z,5.16
2023-02-17T08:26:52.422Z,5.24
2023-02-17T08:29:20.466Z,5.31
2023-02-17T08:31:52.833Z,5.38
2023-02-17T08:34:20.776Z,5.44
2023-02-17T08:36:48.069Z,5.52
2023-02-17T08:39:18.575Z,5.62
2023-02-17T08:41:46.881Z,5.70
2023-02-17T08:44:18.779Z,5.80
2023-02-17T08:46:48.325Z,5.88
2023-02-17T08:49:19.659Z,5.96
2023-02-17T08:51:47.887Z,6.05
2023-02-17T08:54:15.462Z,6.14
2023-02-17T08:56:43.745Z,6.25
2023-02-17T08:59:12.794Z,6.32
2023-02-17T09:01:42.678Z,6.41
2023-02-17T09:04:13.217Z,6.49
2023-02-17T09:06:45.459Z,6.59
2023-02-17T09:09:16.458Z,6.68
2023-02-17T09:11:44.408Z,6.76
2023-02-17T09:14:11.946Z,6.90
2023-02-17T09:16:41.360Z,7.00
2023-02-17T09:19:08.785Z,7.11
2023-02-17T09:21:35.953Z,7.22
2023-02-17T09:24:03.090Z,7.34
2023-02-17T09:26:30.840Z,7.46
2023-02-17T09:28:58.168Z,7.57
2023-02-17T09:31:27.051Z,7.68
2023-02-17T09:33:55.338Z,7.79
2023-02-17T09:36:27.509Z,7.88
2023-02-17T09:38:56.226Z,7.97
2023-02-17T09:41:33.013Z,8.06
2023-02-17T09:44:02.820Z,8.13
2023-02-17T09:46:55.738Z,8.20
2023-02-17T09:49:40.377Z,8.30
2023-02-17T09:52:19.357Z,8.41
2023-02-17T09:55:04.452Z,8.51
2023-02-17T09:57:47.124Z,8.61
2023-02-17T10:00:36.577Z,8.72
2023-02-17T10:03:19.672Z,8.82
2023-02-17T10:06:20.348Z,8.91
2023-02-17T10:08:56.799Z,9.00
2023-02-17T10:11:33.278Z,9.08
2023-02-17T10:14:11.769Z,9.17
2023-02-17T10:16:48.847Z,9.23
2023-02-17T10:19:26.494Z,9.29
2023-02-17T10:22:04.457Z,9.38
2023-02-17T10:24:31.749Z,9.42
2023-02-17T10:27:14.060Z,9.52
2023-02-17T10:29:50.296Z,9.60
2023-02-17T10:32:27.120Z,9.70
2023-02-17T10:35:16.780Z,9.76
2023-02-17T10:38:11.378Z,9.83
2023-02-17T10:40:38.619Z,9.95
2023-02-17T10:43:09.435Z,10.04
2023-02-17T10:45:41.193Z,10.14
2023-02-17T10:48:39.864Z,10.24
2023-02-17T10:51:07.608Z,10.32
2023-02-17T10:53:40.910Z,10.38
2023-02-17T10:56:23.958Z,10.52
2023-02-17T10:59:06.484Z,10.58
2023-02-17T11:01:34.660Z,10.66
2023-02-17T11:04:07.704Z,10.76
2023-02-17T11:06:47.074Z,10.84
2023-02-17T11:09:32.977Z,10.93
2023-02-17T11:12:01.226Z,10.97
2023-02-17T11:14:31.884Z,11.10
2023-02-17T11:17:13.500Z,11.21
2023-02-17T11:19:41.300Z,11.30
2023-02-17T11:22:33.568Z,11.40
2023-02-17T11:25:22.848Z,11.44
2023-02-17T11:27:56.439Z,11.56
2023-02-17T11:30:25.894Z,11.60
2023-02-17T11:32:55.254Z,11.68
2023-02-17T11:35:27.802Z,11.72
2023-02-17T11:38:03.655Z,11.80
2023-02-17T11:40:33.029Z,11.87
2023-02-17T11:43:02.889Z,11.93
2023-02-17T11:46:06.478Z,11.98
2023-02-17T11:48:42.549Z,12.08
2023-02-17T11:51:46.636Z,12.18
2023-02-17T11:54:59.278Z,12.23
2023-02-17T11:57:53.517Z,12.34
2023-02-17T12:01:14.934Z,12.50
2023-02-17T12:04:06.980Z,12.50
2023-02-17T12:06:44.572Z,12.57
2023-02-17T12:09:33.468Z,12.67
2023-02-17T12:12:09.484Z,12.84
2023-02-17T12:15:08.389Z,12.85
2023-02-17T12:18:00.064Z,12.98
2023-02-17T12:20:49.819Z,13.02
2023-02-17T12:23:37.052Z,13.12
2023-02-17T12:26:33.998Z,13.16
2023-02-17T12:29:01.293Z,13.25
2023-02-17T12:32:18.376Z,13.33
2023-02-17T12:35:25.749Z,13.35
2023-02-17T12:38:01.888Z,13.41
2023-02-17T12:40:39.489Z,13.46
2023-02-17T12:43:22.562Z,13.53
2023-02-17T12:45:53.331Z,13.62
2023-02-17T12:48:24.949Z,13.65
2023-02-17T12:51:06.078Z,13.75
2023-02-17T12:53:54.363Z,13.82
2023-02-17T12:56:31.441Z,13.79
2023-02-17T12:59:16.498Z,13.88
2023-02-17T13:01:52.146Z,13.89
2023-02-17T13:04:24.750Z,13.92
2023-02-17T13:07:03.434Z,13.91
2023-02-17T13:09:36.033Z,13.99
2023-02-17T13:12:24.954Z,14.14
2023-02-17T13:15:02.832Z,14.25
2023-02-17T13:17:53.893Z,14.21
2023-02-17T13:20:20.944Z,14.25
2023-02-17T13:22:52.199Z,14.27
2023-02-17T13:25:32.832Z,14.30
2023-02-17T13:28:02.666Z,14.32
2023-02-17T13:30:42.987Z,14.34
2023-02-17T13:33:22.450Z,14.37
2023-02-17T13:35:49.875Z,14.37
2023-02-17T13:38:32.472Z,14.44
2023-02-17T13:41:04.520Z,14.46
2023-02-17T13:43:41.541Z,14.54
2023-02-17T13:46:26.897Z,14.56
2023-02-17T13:49:06.864Z,14.65
2023-02-17T13:51:34.612Z,14.61
2023-02-17T13:54:09.529Z,14.66
2023-02-17T13:56:36.730Z,14.70
2023-02-17T13:59:19.078Z,14.71
2023-02-17T14:01:47.419Z,14.70
2023-02-17T14:04:28.241Z,14.71
2023-02-17T14:07:00.965Z,14.77
2023-02-17T14:09:53.595Z,14.90
2023-02-17T14:12:26.048Z,14.95
2023-02-17T14:14:53.199Z,14.94
2023-02-17T14:17:32.975Z,15.07
2023-02-17T14:20:01.018Z,15.06
2023-02-17T14:22:38.013Z,15.13
2023-02-17T14:25:15.309Z,15.18
2023-02-17T14:27:52.982Z,15.22
2023-02-17T14:30:40.080Z,15.22
2023-02-17T14:33:27.566Z,15.24
2023-02-17T14:35:58.485Z,15.23
2023-02-17T14:38:32.284Z,15.21
2023-02-17T14:41:01.205Z,15.19
2023-02-17T14:43:29.023Z,15.15
2023-02-17T14:45:56.645Z,15.14
2023-02-17T14:48:27.568Z,15.09
2023-02-17T14:50:57.581Z,15.05
2023-02-17T14:53:36.743Z,15.04
2023-02-17T14:56:48.788Z,15.01
2023-02-17T14:59:16.325Z,14.94
2023-02-17T15:01:43.743Z,14.98
2023-02-17T15:04:12.354Z,14.94
2023-02-17T15:06:51.544Z,14.93
2023-02-17T15:09:27.969Z,14.92
2023-02-17T15:11:56.552Z,14.90
2023-02-17T15:14:24.114Z,14.92
2023-02-17T15:16:51.510Z,14.89
2023-02-17T15:19:19.235Z,14.91
2023-02-17T15:21:50.319Z,14.88
2023-02-17T15:24:28.978Z,14.89
2023-02-17T15:26:57.765Z,14.83
2023-02-17T15:29:29.272Z,14.80
2023-02-17T15:32:00.745Z,14.76
2023-02-17T15:34:32.146Z,14.75
2023-02-17T15:37:01.182Z,14.73
2023-02-17T15:39:29.238Z,14.73
2023-02-17T15:42:14.608Z,14.70
2023-02-17T15:44:48.413Z,14.66
2023-02-17T15:47:19.434Z,14.64
2023-02-17T15:49:47.018Z,14.61
2023-02-17T15:52:14.916Z,14.60
2023-02-17T15:54:43.484Z,14.58
2023-02-17T15:57:23.500Z,14.57
2023-02-17T15:59:55.029Z,14.53
2023-02-17T16:02:25.244Z,14.51
2023-02-17T16:04:53.054Z,14.48
2023-02-17T16:07:20.167Z,14.45
2023-02-17T16:09:47.892Z,14.42
2023-02-17T16:12:27.302Z,14.41
2023-02-17T16:14:57.328Z,14.38
2023-02-17T16:17:26.057Z,14.35
2023-02-17T16:19:53.327Z,14.32
2023-02-17T16:22:20.419Z,14.27
2023-02-17T16:24:47.533Z,14.25
2023-02-17T16:27:16.781Z,14.21
2023-02-17T16:29:44.179Z,14.16
2023-02-17T16:32:13.230Z,14.12
2023-02-17T16:34:41.037Z,14.07
2023-02-17T16:37:16.707Z,14.03
2023-02-17T16:39:45.069Z,13.98
2023-02-17T16:42:14.806Z,13.93
2023-02-17T16:44:42.243Z,13.88
2023-02-17T16:47:21.348Z,13.84
2023-02-17T16:49:50.407Z,13.75
2023-02-17T16:52:26.917Z,13.69
2023-02-17T16:54:54.167Z,13.62
2023-02-17T16:57:21.910Z,13.56
2023-02-17T16:59:49.508Z,13.50
2023-02-17T17:02:17.213Z,13.44
2023-02-17T17:04:44.388Z,13.37
2023-02-17T17:07:16.118Z,13.31
2023-02-17T17:09:48.620Z,13.23
2023-02-17T17:12:19.832Z,13.19
2023-02-17T17:14:47.998Z,13.15
2023-02-17T17:17:15.116Z,13.10
2023-02-17T17:19:42.039Z,13.04
2023-02-17T17:22:11.818Z,13.00
2023-02-17T17:24:39.028Z,12.94
2023-02-17T17:27:06.411Z,12.88
2023-02-17T17:29:33.700Z,12.82
2023-02-17T17:32:00.889Z,12.78
2023-02-17T17:34:28.391Z,12.73
2023-02-17T17:36:55.822Z,12.68
2023-02-17T17:39:24.449Z,12.61
2023-02-17T17:41:52.056Z,12.56
2023-02-17T17:44:20.575Z,12.51
2023-02-17T17:46:47.639Z,12.46
2023-02-17T17:49:18.181Z,12.40
2023-02-17T17:51:45.575Z,12.34
2023-02-17T17:54:12.668Z,12.31
2023-02-17T17:56:43.249Z,12.27
2023-02-17T17:59:12.925Z,12.23
2023-02-17T18:01:40.359Z,12.15
2023-02-17T18:04:08.003Z,12.11
2023-02-17T18:06:44.029Z,12.08
2023-02-17T18:09:30.277Z,12.00
2023-02-17T18:12:03.215Z,11.95
2023-02-17T18:14:30.963Z,11.89
2023-02-17T18:16:58.899Z,11.85
2023-02-17T18:19:26.381Z,11.81
2023-02-17T18:21:53.461Z,11.76
2023-02-17T18:24:20.559Z,11.70
2023-02-17T18:26:48.034Z,11.67
2023-02-17T18:29:15.298Z,11.64
2023-02-17T18:31:42.423Z,11.59
2023-02-17T18:34:09.733Z,11.55
2023-02-17T18:36:37.595Z,11.50
2023-02-17T18:39:05.714Z,11.43
2023-02-17T18:41:34.964Z,11.39
2023-02-17T18:44:04.512Z,11.34
2023-02-17T18:46:33.426Z,11.33
2023-02-17T18:49:00.712Z,11.27
2023-02-17T18:51:28.102Z,11.22
2023-02-17T18:53:57.915Z,11.18
2023-02-17T18:56:29.841Z,11.15
2023-02-17T18:58:57.248Z,11.12
2023-02-17T19:01:38.571Z,11.08
2023-02-17T19:04:06.072Z,11.04
2023-02-17T19:06:34.963Z,11.02
2023-02-17T19:09:04.505Z,10.97
2023-02-17T19:11:32.839Z,10.94
2023-02-17T19:14:01.839Z,10.91
2023-02-17T19:16:31.709Z,10.88
2023-02-17T19:19:00.102Z,10.85
2023-02-17T19:21:27.341Z,10.79
2023-02-17T19:23:54.378Z,10.73
2023-02-17T19:26:22.610Z,10.70
2023-02-17T19:28:50.002Z,10.67
2023-02-17T19:31:20.080Z,10.62
2023-02-17T19:33:48.366Z,10.58
2023-02-17T19:36:21.266Z,10.53
2023-02-17T19:38:50.373Z,10.50
2023-02-17T19:41:20.063Z,10.47
2023-02-17T19:43:48.218Z,10.43
2023-02-17T19:46:19.833Z,10.38
2023-02-17T19:48:46.916Z,10.33
2023-02-17T19:51:14.787Z,10.29
2023-02-17T19:53:43.545Z,10.27
2023-02-17T19:56:23.983Z,10.23
2023-02-17T19:58:52.199Z,10.22
2023-02-17T20:01:30.445Z,10.19
2023-02-17T20:04:01.660Z,10.17
2023-02-17T20:06:35.222Z,10.16
2023-02-17T20:09:07.981Z,10.07
2023-02-17T20:11:35.254Z,10.02
2023-02-17T20:14:03.720Z,10.01
2023-02-17T20:16:31.893Z,9.99
2023-02-17T20:19:02.035Z,9.98
2023-02-17T20:21:32.512Z,9.94
2023-02-17T20:24:00.499Z,9.88
2023-02-17T20:26:39.077Z,9.89
2023-02-17T20:29:06.378Z,9.86
2023-02-17T20:31:36.885Z,9.82
2023-02-17T20:34:06.370Z,9.79
2023-02-17T20:36:34.207Z,9.77
2023-02-17T20:39:01.729Z,9.73
2023-02-17T20:41:28.840Z,9.71
2023-02-17T20:43:56.191Z,9.68
2023-02-17T20:46:28.862Z,9.64
2023-02-17T20:48:56.635Z,9.63
2023-02-17T20:51:23.919Z,9.59
2023-02-17T20:53:51.291Z,9.59
2023-02-17T20:56:22.416Z,9.56
2023-02-17T20:58:50.856Z,9.56
2023-02-17T21:01:19.939Z,9.54
2023-02-17T21:03:47.500Z,9.54
2023-02-17T21:06:22.389Z,9.50
2023-02-17T21:08:54.565Z,9.47
2023-02-17T21:11:22.411Z,9.42
2023-02-17T21:13:50.225Z,9.40
2023-02-17T21:16:21.818Z,9.38
2023-02-17T21:18:49.286Z,9.35
2023-02-17T21:21:17.118Z,9.33
2023-02-17T21:23:44.749Z,9.29
2023-02-17T21:26:13.217Z,9.23
2023-02-17T21:28:40.698Z,9.18
2023-02-17T21:31:08.691Z,9.08
2023-02-17T21:33:41.820Z,9.01
2023-02-17T21:36:11.516Z,8.99
2023-02-17T21:38:39.016Z,8.96
2023-02-17T21:41:13.337Z,8.93
2023-02-17T21:43:59.091Z,8.90
2023-02-17T21:46:26.934Z,8.87
2023-02-17T21:48:56.429Z,8.87
2023-02-17T21:51:24.486Z,8.87
2023-02-17T21:53:52.830Z,8.83
2023-02-17T21:56:22.458Z,8.81
2023-02-17T21:58:53.483Z,8.80
2023-02-17T22:01:23.576Z,8.78
2023-02-17T22:03:51.866Z,8.76
2023-02-17T22:06:23.699Z,8.75
2023-02-17T22:08:51.429Z,8.72
2023-02-17T22:11:22.674Z,8.68
2023-02-17T22:13:50.262Z,8.65
2023-02-17T22:16:17.307Z,8.61
2023-02-17T22:18:44.431Z,8.58
2023-02-17T22:21:14.319Z,8.58
2023-02-17T22:23:42.687Z,8.56
2023-02-17T22:26:15.329Z,8.57
2023-02-17T22:28:42.964Z,8.56
2023-02-17T22:31:17.545Z,8.56
2023-02-17T22:33:45.099Z,8.57
2023-02-17T22:36:19.139Z,8.56
2023-02-17T22:38:46.219Z,8.50
2023-02-17T22:41:19.861Z,8.46
2023-02-17T22:43:48.312Z,8.41
2023-02-17T22:46:18.426Z,8.38
2023-02-17T22:48:47.998Z,8.36
2023-02-17T22:51:19.911Z,8.33
2023-02-17T22:53:47.172Z,8.33
2023-02-17T22:56:15.454Z,8.31
2023-02-17T22:58:43.097Z,8.30
2023-02-17T23:01:20.853Z,8.26
2023-02-17T23:03:54.442Z,8.22
2023-02-17T23:06:32.278Z,8.19
2023-02-17T23:09:01.053Z,8.18
2023-02-17T23:11:51.309Z,8.17
2023-02-17T23:14:35.572Z,8.14
2023-02-17T23:17:10.759Z,8.12
2023-02-17T23:19:39.953Z,8.09
2023-02-17T23:22:14.428Z,8.06
2023-02-17T23:24:45.956Z,8.02
2023-02-17T23:27:14.152Z,7.97
2023-02-17T23:29:42.096Z,7.95
2023-02-17T23:32:09.590Z,7.93
2023-02-17T23:34:36.763Z,7.91
2023-02-17T23:37:03.800Z,7.91
2023-02-17T23:39:31.365Z,7.88
2023-02-17T23:41:58.513Z,7.87
2023-02-17T23:44:25.600Z,7.87
2023-02-17T23:46:52.638Z,7.87
2023-02-17T23:49:19.783Z,7.86
2023-02-17T23:51:47.309Z,7.84
2023-02-17T23:54:15.411Z,7.82
2023-02-17T23:56:43.657Z,7.81
2023-02-17T23:59:11.679Z,7.78
